sensor_id;sensor_type;location;lat;lon;timestamp;P1;durP1;ratioP1;P2;durP2;ratioP2
16393;SDS011;8306;51.128;4.476;2023-12-28T00:01:51;2.20;;;2.00;;
16393;SDS011;8306;51.128;4.476;2023-12-28T00:04:18;2.47;;;2.27;;
16393;SDS011;8306;51.128;4.476;2023-12-28T00:06:44;2.47;;;1.93;;
16393;SDS011;8306;51.128;4.476;2023-12-28T00:09:11;2.27;;;1.97;;
16393;SDS011;8306;51.128;4.476;2023-12-28T00:11:37;1.90;;;1.80;;
16393;SDS011;8306;51.128;4.476;2023-12-28T00:14:04;2.20;;;1.80;;
16393;SDS011;8306;51.128;4.476;2023-12-28T00:16:31;2.57;;;2.13;;
16393;SDS011;8306;51.128;4.476;2023-12-28T00:18:57;2.10;;;1.83;;
16393;SDS011;8306;51.128;4.476;2023-12-28T00:21:23;1.83;;;1.73;;
16393;SDS011;8306;51.128;4.476;2023-12-28T00:23:50;2.67;;;1.80;;
16393;SDS011;8306;51.128;4.476;2023-12-28T00:26:16;1.97;;;1.83;;
16393;SDS011;8306;51.128;4.476;2023-12-28T00:28:43;2.00;;;1.90;;
16393;SDS011;8306;51.128;4.476;2023-12-28T00:31:09;2.43;;;2.10;;
16393;SDS011;8306;51.128;4.476;2023-12-28T00:33:36;2.30;;;2.10;;
16393;SDS011;8306;51.128;4.476;2023-12-28T00:36:02;1.83;;;1.73;;
16393;SDS011;8306;51.128;4.476;2023-12-28T00:38:29;2.10;;;1.70;;
16393;SDS011;8306;51.128;4.476;2023-12-28T00:40:55;1.80;;;1.70;;
16393;SDS011;8306;51.128;4.476;2023-12-28T00:43:22;2.33;;;2.07;;
16393;SDS011;8306;51.128;4.476;2023-12-28T00:45:48;2.57;;;2.20;;
16393;SDS011;8306;51.128;4.476;2023-12-28T00:48:14;2.37;;;1.80;;
16393;SDS011;8306;51.128;4.476;2023-12-28T00:50:41;2.30;;;2.10;;
16393;SDS011;8306;51.128;4.476;2023-12-28T00:53:07;2.33;;;1.97;;
16393;SDS011;8306;51.128;4.476;2023-12-28T00:55:34;2.07;;;1.80;;
16393;SDS011;8306;51.128;4.476;2023-12-28T00:58:00;3.63;;;1.97;;
16393;SDS011;8306;51.128;4.476;2023-12-28T01:00:27;2.27;;;2.00;;
16393;SDS011;8306;51.128;4.476;2023-12-28T01:02:53;2.83;;;1.80;;
16393;SDS011;8306;51.128;4.476;2023-12-28T01:05:20;3.33;;;1.67;;
16393;SDS011;8306;51.128;4.476;2023-12-28T01:07:46;2.67;;;2.00;;
16393;SDS011;8306;51.128;4.476;2023-12-28T01:10:13;4.70;;;2.27;;
16393;SDS011;8306;51.128;4.476;2023-12-28T01:12:39;3.43;;;2.10;;
16393;SDS011;8306;51.128;4.476;2023-12-28T01:15:06;2.77;;;1.80;;
16393;SDS011;8306;51.128;4.476;2023-12-28T01:17:32;2.00;;;1.80;;
16393;SDS011;8306;51.128;4.476;2023-12-28T01:19:59;2.43;;;1.87;;
16393;SDS011;8306;51.128;4.476;2023-12-28T01:22:25;3.43;;;2.20;;
16393;SDS011;8306;51.128;4.476;2023-12-28T01:24:52;3.20;;;1.83;;
16393;SDS011;8306;51.128;4.476;2023-12-28T01:27:18;2.47;;;1.83;;
16393;SDS011;8306;51.128;4.476;2023-12-28T01:29:45;3.20;;;2.37;;
16393;SDS011;8306;51.128;4.476;2023-12-28T01:32:11;2.50;;;1.93;;
16393;SDS011;8306;51.128;4.476;2023-12-28T01:34:39;3.67;;;2.13;;
16393;SDS011;8306;51.128;4.476;2023-12-28T01:37:04;1.63;;;1.53;;
16393;SDS011;8306;51.128;4.476;2023-12-28T01:39:31;2.27;;;1.80;;
16393;SDS011;8306;51.128;4.476;2023-12-28T01:41:57;2.60;;;1.97;;
16393;SDS011;8306;51.128;4.476;2023-12-28T01:44:24;2.33;;;1.87;;
16393;SDS011;8306;51.128;4.476;2023-12-28T01:46:50;2.00;;;1.80;;
16393;SDS011;8306;51.128;4.476;2023-12-28T01:49:16;2.07;;;1.87;;
16393;SDS011;8306;51.128;4.476;2023-12-28T01:51:43;3.70;;;1.80;;
16393;SDS011;8306;51.128;4.476;2023-12-28T01:54:09;2.93;;;2.07;;
16393;SDS011;8306;51.128;4.476;2023-12-28T01:56:36;3.37;;;2.00;;
16393;SDS011;8306;51.128;4.476;2023-12-28T01:59:02;2.60;;;1.93;;
16393;SDS011;8306;51.128;4.476;2023-12-28T02:01:29;2.53;;;1.90;;
16393;SDS011;8306;51.128;4.476;2023-12-28T02:03:55;2.37;;;1.97;;
16393;SDS011;8306;51.128;4.476;2023-12-28T02:06:22;2.70;;;1.90;;
16393;SDS011;8306;51.128;4.476;2023-12-28T02:08:48;2.87;;;2.27;;
16393;SDS011;8306;51.128;4.476;2023-12-28T02:11:15;2.67;;;2.10;;
16393;SDS011;8306;51.128;4.476;2023-12-28T02:13:41;4.03;;;2.03;;
16393;SDS011;8306;51.128;4.476;2023-12-28T02:16:20;2.83;;;2.23;;
16393;SDS011;8306;51.128;4.476;2023-12-28T02:18:36;2.33;;;2.10;;
16393;SDS011;8306;51.128;4.476;2023-12-28T02:21:01;2.60;;;2.27;;
16393;SDS011;8306;51.128;4.476;2023-12-28T02:23:27;1.97;;;1.80;;
16393;SDS011;8306;51.128;4.476;2023-12-28T02:25:54;2.07;;;1.70;;
16393;SDS011;8306;51.128;4.476;2023-12-28T02:28:20;2.20;;;1.70;;
16393;SDS011;8306;51.128;4.476;2023-12-28T02:30:47;2.30;;;1.73;;
16393;SDS011;8306;51.128;4.476;2023-12-28T02:33:23;2.90;;;1.70;;
16393;SDS011;8306;51.128;4.476;2023-12-28T02:35:48;3.30;;;1.80;;
16393;SDS011;8306;51.128;4.476;2023-12-28T02:38:13;5.37;;;1.70;;
16393;SDS011;8306;51.128;4.476;2023-12-28T02:40:39;3.87;;;2.30;;
16393;SDS011;8306;51.128;4.476;2023-12-28T02:43:08;2.27;;;1.60;;
16393;SDS011;8306;51.128;4.476;2023-12-28T02:45:34;3.10;;;1.90;;
16393;SDS011;8306;51.128;4.476;2023-12-28T02:48:01;2.87;;;1.70;;
16393;SDS011;8306;51.128;4.476;2023-12-28T02:50:27;3.20;;;2.00;;
16393;SDS011;8306;51.128;4.476;2023-12-28T02:52:54;3.10;;;2.00;;
16393;SDS011;8306;51.128;4.476;2023-12-28T02:55:20;3.73;;;1.90;;
16393;SDS011;8306;51.128;4.476;2023-12-28T02:57:47;2.37;;;1.60;;
16393;SDS011;8306;51.128;4.476;2023-12-28T03:00:13;2.53;;;1.60;;
16393;SDS011;8306;51.128;4.476;2023-12-28T03:02:40;3.60;;;1.80;;
16393;SDS011;8306;51.128;4.476;2023-12-28T03:05:06;3.57;;;1.70;;
16393;SDS011;8306;51.128;4.476;2023-12-28T03:07:33;3.07;;;1.90;;
16393;SDS011;8306;51.128;4.476;2023-12-28T03:09:59;2.70;;;1.60;;
16393;SDS011;8306;51.128;4.476;2023-12-28T03:12:26;5.73;;;2.37;;
16393;SDS011;8306;51.128;4.476;2023-12-28T03:14:52;4.03;;;2.00;;
16393;SDS011;8306;51.128;4.476;2023-12-28T03:17:19;3.63;;;1.90;;
16393;SDS011;8306;51.128;4.476;2023-12-28T03:19:45;4.20;;;2.27;;
16393;SDS011;8306;51.128;4.476;2023-12-28T03:22:12;3.73;;;1.80;;
16393;SDS011;8306;51.128;4.476;2023-12-28T03:24:38;3.53;;;2.00;;
16393;SDS011;8306;51.128;4.476;2023-12-28T03:27:05;2.13;;;1.60;;
16393;SDS011;8306;51.128;4.476;2023-12-28T03:29:31;2.93;;;2.00;;
16393;SDS011;8306;51.128;4.476;2023-12-28T03:31:57;2.90;;;1.80;;
16393;SDS011;8306;51.128;4.476;2023-12-28T03:34:24;2.77;;;1.87;;
16393;SDS011;8306;51.128;4.476;2023-12-28T03:36:50;3.17;;;1.63;;
16393;SDS011;8306;51.128;4.476;2023-12-28T03:39:17;4.70;;;2.10;;
16393;SDS011;8306;51.128;4.476;2023-12-28T03:41:43;5.43;;;2.20;;
16393;SDS011;8306;51.128;4.476;2023-12-28T03:44:10;3.63;;;1.93;;
16393;SDS011;8306;51.128;4.476;2023-12-28T03:46:36;3.03;;;1.97;;
16393;SDS011;8306;51.128;4.476;2023-12-28T03:49:03;3.37;;;2.00;;
16393;SDS011;8306;51.128;4.476;2023-12-28T03:51:29;5.17;;;1.93;;
16393;SDS011;8306;51.128;4.476;2023-12-28T03:53:56;5.13;;;2.10;;
16393;SDS011;8306;51.128;4.476;2023-12-28T03:56:23;3.93;;;1.93;;
16393;SDS011;8306;51.128;4.476;2023-12-28T03:58:49;3.00;;;1.67;;
16393;SDS011;8306;51.128;4.476;2023-12-28T04:01:18;5.40;;;1.67;;
16393;SDS011;8306;51.128;4.476;2023-12-28T04:03:45;4.93;;;1.97;;
16393;SDS011;8306;51.128;4.476;2023-12-28T04:06:11;5.57;;;2.10;;
16393;SDS011;8306;51.128;4.476;2023-12-28T04:08:38;4.77;;;2.10;;
16393;SDS011;8306;51.128;4.476;2023-12-28T04:11:04;3.83;;;1.90;;
16393;SDS011;8306;51.128;4.476;2023-12-28T04:13:31;4.03;;;1.73;;
16393;SDS011;8306;51.128;4.476;2023-12-28T04:15:57;3.77;;;1.97;;
16393;SDS011;8306;51.128;4.476;2023-12-28T04:18:24;7.07;;;1.90;;
16393;SDS011;8306;51.128;4.476;2023-12-28T04:20:50;3.73;;;1.60;;
16393;SDS011;8306;51.128;4.476;2023-12-28T04:23:17;3.10;;;2.17;;
16393;SDS011;8306;51.128;4.476;2023-12-28T04:25:43;3.00;;;1.40;;
16393;SDS011;8306;51.128;4.476;2023-12-28T04:28:10;4.20;;;1.97;;
16393;SDS011;8306;51.128;4.476;2023-12-28T04:30:36;3.13;;;1.83;;
16393;SDS011;8306;51.128;4.476;2023-12-28T04:33:03;3.57;;;1.60;;
16393;SDS011;8306;51.128;4.476;2023-12-28T04:35:29;5.83;;;2.53;;
16393;SDS011;8306;51.128;4.476;2023-12-28T04:37:56;2.80;;;1.70;;
16393;SDS011;8306;51.128;4.476;2023-12-28T04:40:22;8.27;;;1.93;;
16393;SDS011;8306;51.128;4.476;2023-12-28T04:42:49;4.13;;;1.63;;
16393;SDS011;8306;51.128;4.476;2023-12-28T04:45:15;4.27;;;2.00;;
16393;SDS011;8306;51.128;4.476;2023-12-28T04:47:42;4.70;;;1.80;;
16393;SDS011;8306;51.128;4.476;2023-12-28T04:50:08;5.53;;;2.03;;
16393;SDS011;8306;51.128;4.476;2023-12-28T04:52:35;5.83;;;2.30;;
16393;SDS011;8306;51.128;4.476;2023-12-28T04:55:01;4.40;;;1.67;;
16393;SDS011;8306;51.128;4.476;2023-12-28T04:57:28;5.03;;;1.97;;
16393;SDS011;8306;51.128;4.476;2023-12-28T04:59:54;3.43;;;1.50;;
16393;SDS011;8306;51.128;4.476;2023-12-28T05:02:21;5.13;;;1.80;;
16393;SDS011;8306;51.128;4.476;2023-12-28T05:04:47;5.73;;;2.00;;
16393;SDS011;8306;51.128;4.476;2023-12-28T05:07:13;5.97;;;1.70;;
16393;SDS011;8306;51.128;4.476;2023-12-28T05:09:40;5.27;;;1.63;;
16393;SDS011;8306;51.128;4.476;2023-12-28T05:12:06;4.40;;;1.50;;
16393;SDS011;8306;51.128;4.476;2023-12-28T05:14:33;7.80;;;2.30;;
16393;SDS011;8306;51.128;4.476;2023-12-28T05:16:59;5.70;;;2.33;;
16393;SDS011;8306;51.128;4.476;2023-12-28T05:19:26;5.13;;;1.67;;
16393;SDS011;8306;51.128;4.476;2023-12-28T05:21:52;6.80;;;1.97;;
16393;SDS011;8306;51.128;4.476;2023-12-28T05:24:19;3.63;;;1.80;;
16393;SDS011;8306;51.128;4.476;2023-12-28T05:26:45;4.93;;;1.90;;
16393;SDS011;8306;51.128;4.476;2023-12-28T05:29:12;5.30;;;2.00;;
16393;SDS011;8306;51.128;4.476;2023-12-28T05:31:38;6.77;;;2.20;;
16393;SDS011;8306;51.128;4.476;2023-12-28T05:34:05;8.33;;;2.20;;
16393;SDS011;8306;51.128;4.476;2023-12-28T05:36:31;7.07;;;2.10;;
16393;SDS011;8306;51.128;4.476;2023-12-28T05:38:58;6.60;;;2.47;;
16393;SDS011;8306;51.128;4.476;2023-12-28T05:41:24;8.30;;;2.00;;
16393;SDS011;8306;51.128;4.476;2023-12-28T05:43:51;5.63;;;1.77;;
16393;SDS011;8306;51.128;4.476;2023-12-28T05:46:17;6.97;;;2.60;;
16393;SDS011;8306;51.128;4.476;2023-12-28T05:48:44;6.73;;;1.77;;
16393;SDS011;8306;51.128;4.476;2023-12-28T05:51:10;9.60;;;2.83;;
16393;SDS011;8306;51.128;4.476;2023-12-28T05:53:37;6.47;;;1.90;;
16393;SDS011;8306;51.128;4.476;2023-12-28T05:56:03;7.90;;;2.17;;
16393;SDS011;8306;51.128;4.476;2023-12-28T05:58:30;6.77;;;2.03;;
16393;SDS011;8306;51.128;4.476;2023-12-28T06:00:56;8.80;;;2.30;;
16393;SDS011;8306;51.128;4.476;2023-12-28T06:03:22;6.80;;;2.27;;
16393;SDS011;8306;51.128;4.476;2023-12-28T06:05:49;5.20;;;1.90;;
16393;SDS011;8306;51.128;4.476;2023-12-28T06:08:15;8.90;;;2.13;;
16393;SDS011;8306;51.128;4.476;2023-12-28T06:10:42;10.77;;;2.50;;
16393;SDS011;8306;51.128;4.476;2023-12-28T06:13:08;6.50;;;2.47;;
16393;SDS011;8306;51.128;4.476;2023-12-28T06:15:35;9.13;;;2.40;;
16393;SDS011;8306;51.128;4.476;2023-12-28T06:18:01;6.67;;;2.30;;
16393;SDS011;8306;51.128;4.476;2023-12-28T06:20:28;6.03;;;1.93;;
16393;SDS011;8306;51.128;4.476;2023-12-28T06:22:54;7.13;;;2.03;;
16393;SDS011;8306;51.128;4.476;2023-12-28T06:25:21;10.87;;;2.33;;
16393;SDS011;8306;51.128;4.476;2023-12-28T06:27:47;7.90;;;2.50;;
16393;SDS011;8306;51.128;4.476;2023-12-28T06:30:14;11.20;;;2.13;;
16393;SDS011;8306;51.128;4.476;2023-12-28T06:32:40;6.73;;;2.60;;
16393;SDS011;8306;51.128;4.476;2023-12-28T06:35:07;11.90;;;2.73;;
16393;SDS011;8306;51.128;4.476;2023-12-28T06:37:33;7.47;;;2.43;;
16393;SDS011;8306;51.128;4.476;2023-12-28T06:40:00;7.40;;;2.23;;
16393;SDS011;8306;51.128;4.476;2023-12-28T06:42:26;9.13;;;2.00;;
16393;SDS011;8306;51.128;4.476;2023-12-28T06:44:53;12.87;;;2.23;;
16393;SDS011;8306;51.128;4.476;2023-12-28T06:47:19;12.17;;;2.07;;
16393;SDS011;8306;51.128;4.476;2023-12-28T06:49:46;8.70;;;2.63;;
16393;SDS011;8306;51.128;4.476;2023-12-28T06:52:12;7.97;;;2.20;;
16393;SDS011;8306;51.128;4.476;2023-12-28T06:54:38;10.60;;;2.83;;
16393;SDS011;8306;51.128;4.476;2023-12-28T06:57:05;7.03;;;1.83;;
16393;SDS011;8306;51.128;4.476;2023-12-28T06:59:31;6.70;;;2.20;;
16393;SDS011;8306;51.128;4.476;2023-12-28T07:01:58;8.33;;;2.30;;
16393;SDS011;8306;51.128;4.476;2023-12-28T07:04:24;7.47;;;2.40;;
16393;SDS011;8306;51.128;4.476;2023-12-28T07:06:51;7.53;;;2.33;;
16393;SDS011;8306;51.128;4.476;2023-12-28T07:09:17;6.40;;;2.30;;
16393;SDS011;8306;51.128;4.476;2023-12-28T07:11:44;7.43;;;2.17;;
16393;SDS011;8306;51.128;4.476;2023-12-28T07:14:10;6.40;;;2.13;;
16393;SDS011;8306;51.128;4.476;2023-12-28T07:16:37;7.47;;;2.17;;
16393;SDS011;8306;51.128;4.476;2023-12-28T07:19:03;6.60;;;1.90;;
16393;SDS011;8306;51.128;4.476;2023-12-28T07:21:30;11.27;;;2.47;;
16393;SDS011;8306;51.128;4.476;2023-12-28T07:23:56;8.40;;;2.03;;
16393;SDS011;8306;51.128;4.476;2023-12-28T07:26:23;11.10;;;2.37;;
16393;SDS011;8306;51.128;4.476;2023-12-28T07:28:49;10.03;;;2.50;;
16393;SDS011;8306;51.128;4.476;2023-12-28T07:31:22;8.57;;;2.60;;
16393;SDS011;8306;51.128;4.476;2023-12-28T07:33:48;6.73;;;2.20;;
16393;SDS011;8306;51.128;4.476;2023-12-28T07:36:14;9.70;;;2.33;;
16393;SDS011;8306;51.128;4.476;2023-12-28T07:38:41;11.83;;;2.33;;
16393;SDS011;8306;51.128;4.476;2023-12-28T07:41:07;8.80;;;2.43;;
16393;SDS011;8306;51.128;4.476;2023-12-28T07:43:34;11.07;;;2.80;;
16393;SDS011;8306;51.128;4.476;2023-12-28T07:46:00;7.80;;;2.50;;
16393;SDS011;8306;51.128;4.476;2023-12-28T07:48:27;10.20;;;2.90;;
16393;SDS011;8306;51.128;4.476;2023-12-28T07:50:53;7.53;;;2.37;;
16393;SDS011;8306;51.128;4.476;2023-12-28T07:53:20;7.10;;;1.87;;
16393;SDS011;8306;51.128;4.476;2023-12-28T07:55:46;10.00;;;2.77;;
16393;SDS011;8306;51.128;4.476;2023-12-28T07:58:13;7.27;;;2.30;;
16393;SDS011;8306;51.128;4.476;2023-12-28T08:00:39;10.60;;;2.50;;
16393;SDS011;8306;51.128;4.476;2023-12-28T08:03:06;9.03;;;2.83;;
16393;SDS011;8306;51.128;4.476;2023-12-28T08:05:32;14.20;;;2.73;;
16393;SDS011;8306;51.128;4.476;2023-12-28T08:07:59;6.97;;;2.10;;
16393;SDS011;8306;51.128;4.476;2023-12-28T08:10:25;7.63;;;2.23;;
16393;SDS011;8306;51.128;4.476;2023-12-28T08:12:51;12.27;;;2.83;;
16393;SDS011;8306;51.128;4.476;2023-12-28T08:15:18;10.23;;;2.90;;
16393;SDS011;8306;51.128;4.476;2023-12-28T08:17:44;10.93;;;2.50;;
16393;SDS011;8306;51.128;4.476;2023-12-28T08:20:11;12.27;;;2.80;;
16393;SDS011;8306;51.128;4.476;2023-12-28T08:22:37;9.00;;;2.50;;
16393;SDS011;8306;51.128;4.476;2023-12-28T08:25:04;8.70;;;2.40;;
16393;SDS011;8306;51.128;4.476;2023-12-28T08:27:33;8.23;;;2.40;;
16393;SDS011;8306;51.128;4.476;2023-12-28T08:30:00;9.13;;;2.03;;
16393;SDS011;8306;51.128;4.476;2023-12-28T08:32:27;10.40;;;2.47;;
16393;SDS011;8306;51.128;4.476;2023-12-28T08:34:52;8.90;;;2.57;;
16393;SDS011;8306;51.128;4.476;2023-12-28T08:37:19;9.90;;;2.40;;
16393;SDS011;8306;51.128;4.476;2023-12-28T08:39:45;8.03;;;2.27;;
16393;SDS011;8306;51.128;4.476;2023-12-28T08:42:12;12.40;;;2.63;;
16393;SDS011;8306;51.128;4.476;2023-12-28T08:44:38;6.17;;;2.30;;
16393;SDS011;8306;51.128;4.476;2023-12-28T08:47:05;6.87;;;2.10;;
16393;SDS011;8306;51.128;4.476;2023-12-28T08:49:31;8.00;;;1.90;;
16393;SDS011;8306;51.128;4.476;2023-12-28T08:51:58;11.30;;;2.63;;
16393;SDS011;8306;51.128;4.476;2023-12-28T08:54:24;7.10;;;2.40;;
16393;SDS011;8306;51.128;4.476;2023-12-28T08:56:51;7.40;;;2.67;;
16393;SDS011;8306;51.128;4.476;2023-12-28T08:59:17;8.73;;;2.50;;
16393;SDS011;8306;51.128;4.476;2023-12-28T09:01:44;8.70;;;2.70;;
16393;SDS011;8306;51.128;4.476;2023-12-28T09:04:11;7.10;;;2.20;;
16393;SDS011;8306;51.128;4.476;2023-12-28T09:06:37;7.93;;;2.37;;
16393;SDS011;8306;51.128;4.476;2023-12-28T09:09:03;9.00;;;2.27;;
16393;SDS011;8306;51.128;4.476;2023-12-28T09:11:30;11.90;;;2.80;;
16393;SDS011;8306;51.128;4.476;2023-12-28T09:13:56;13.77;;;3.00;;
16393;SDS011;8306;51.128;4.476;2023-12-28T09:16:23;7.53;;;1.80;;
16393;SDS011;8306;51.128;4.476;2023-12-28T09:18:49;13.17;;;2.60;;
16393;SDS011;8306;51.128;4.476;2023-12-28T09:21:16;7.70;;;2.30;;
16393;SDS011;8306;51.128;4.476;2023-12-28T09:23:42;10.03;;;2.90;;
16393;SDS011;8306;51.128;4.476;2023-12-28T09:26:09;10.33;;;2.80;;
16393;SDS011;8306;51.128;4.476;2023-12-28T09:28:35;7.97;;;2.57;;
16393;SDS011;8306;51.128;4.476;2023-12-28T09:31:02;9.17;;;2.83;;
16393;SDS011;8306;51.128;4.476;2023-12-28T09:33:28;6.40;;;2.00;;
16393;SDS011;8306;51.128;4.476;2023-12-28T09:35:54;8.17;;;2.40;;
16393;SDS011;8306;51.128;4.476;2023-12-28T09:38:21;9.73;;;2.37;;
16393;SDS011;8306;51.128;4.476;2023-12-28T09:40:47;8.93;;;2.97;;
16393;SDS011;8306;51.128;4.476;2023-12-28T09:43:21;8.40;;;2.60;;
16393;SDS011;8306;51.128;4.476;2023-12-28T09:45:49;8.57;;;2.33;;
16393;SDS011;8306;51.128;4.476;2023-12-28T09:48:19;10.37;;;2.67;;
16393;SDS011;8306;51.128;4.476;2023-12-28T09:50:45;11.00;;;2.70;;
16393;SDS011;8306;51.128;4.476;2023-12-28T09:53:12;8.93;;;2.67;;
16393;SDS011;8306;51.128;4.476;2023-12-28T09:55:38;11.17;;;2.70;;
16393;SDS011;8306;51.128;4.476;2023-12-28T09:58:04;12.00;;;2.73;;
16393;SDS011;8306;51.128;4.476;2023-12-28T10:00:31;9.37;;;2.47;;
16393;SDS011;8306;51.128;4.476;2023-12-28T10:02:57;9.83;;;2.47;;
16393;SDS011;8306;51.128;4.476;2023-12-28T10:05:24;10.93;;;3.00;;
16393;SDS011;8306;51.128;4.476;2023-12-28T10:07:50;8.03;;;2.83;;
16393;SDS011;8306;51.128;4.476;2023-12-28T10:10:17;8.40;;;3.00;;
16393;SDS011;8306;51.128;4.476;2023-12-28T10:12:43;8.70;;;3.00;;
16393;SDS011;8306;51.128;4.476;2023-12-28T10:15:09;14.57;;;3.10;;
16393;SDS011;8306;51.128;4.476;2023-12-28T10:17:36;8.20;;;2.37;;
16393;SDS011;8306;51.128;4.476;2023-12-28T10:20:03;8.43;;;2.73;;
16393;SDS011;8306;51.128;4.476;2023-12-28T10:22:32;11.97;;;2.90;;
16393;SDS011;8306;51.128;4.476;2023-12-28T10:24:59;8.03;;;2.57;;
16393;SDS011;8306;51.128;4.476;2023-12-28T10:27:25;7.40;;;2.53;;
16393;SDS011;8306;51.128;4.476;2023-12-28T10:29:57;8.70;;;2.47;;
16393;SDS011;8306;51.128;4.476;2023-12-28T10:32:24;7.60;;;2.40;;
16393;SDS011;8306;51.128;4.476;2023-12-28T10:34:53;10.77;;;2.83;;
16393;SDS011;8306;51.128;4.476;2023-12-28T10:37:20;7.30;;;2.30;;
16393;SDS011;8306;51.128;4.476;2023-12-28T10:39:46;8.73;;;2.83;;
16393;SDS011;8306;51.128;4.476;2023-12-28T10:42:13;8.07;;;2.67;;
16393;SDS011;8306;51.128;4.476;2023-12-28T10:44:39;14.97;;;3.10;;
16393;SDS011;8306;51.128;4.476;2023-12-28T10:47:05;8.37;;;2.30;;
16393;SDS011;8306;51.128;4.476;2023-12-28T10:49:33;13.20;;;2.53;;
16393;SDS011;8306;51.128;4.476;2023-12-28T10:51:58;14.93;;;3.33;;
16393;SDS011;8306;51.128;4.476;2023-12-28T10:54:41;8.77;;;2.90;;
16393;SDS011;8306;51.128;4.476;2023-12-28T10:57:12;7.53;;;2.50;;
16393;SDS011;8306;51.128;4.476;2023-12-28T11:00:00;10.37;;;2.97;;
16393;SDS011;8306;51.128;4.476;2023-12-28T11:02:08;12.63;;;3.40;;
16393;SDS011;8306;51.128;4.476;2023-12-28T11:04:37;8.53;;;2.80;;
16393;SDS011;8306;51.128;4.476;2023-12-28T11:07:03;10.00;;;3.33;;
16393;SDS011;8306;51.128;4.476;2023-12-28T11:09:30;15.00;;;3.23;;
16393;SDS011;8306;51.128;4.476;2023-12-28T11:11:59;10.97;;;3.10;;
16393;SDS011;8306;51.128;4.476;2023-12-28T11:14:27;12.07;;;3.33;;
16393;SDS011;8306;51.128;4.476;2023-12-28T11:16:53;9.97;;;3.30;;
16393;SDS011;8306;51.128;4.476;2023-12-28T11:19:19;10.40;;;3.20;;
16393;SDS011;8306;51.128;4.476;2023-12-28T11:21:45;10.70;;;3.17;;
16393;SDS011;8306;51.128;4.476;2023-12-28T11:24:12;11.97;;;3.53;;
16393;SDS011;8306;51.128;4.476;2023-12-28T11:26:38;9.03;;;2.80;;
16393;SDS011;8306;51.128;4.476;2023-12-28T11:29:05;12.83;;;3.57;;
16393;SDS011;8306;51.128;4.476;2023-12-28T11:31:32;15.37;;;3.90;;
16393;SDS011;8306;51.128;4.476;2023-12-28T11:33:58;11.57;;;3.07;;
16393;SDS011;8306;51.128;4.476;2023-12-28T11:36:34;9.87;;;3.10;;
16393;SDS011;8306;51.128;4.476;2023-12-28T11:39:03;9.23;;;3.33;;
16393;SDS011;8306;51.128;4.476;2023-12-28T11:41:32;13.20;;;3.40;;
16393;SDS011;8306;51.128;4.476;2023-12-28T11:44:04;13.50;;;3.10;;
16393;SDS011;8306;51.128;4.476;2023-12-28T11:46:35;8.33;;;2.87;;
16393;SDS011;8306;51.128;4.476;2023-12-28T11:49:06;9.23;;;2.67;;
16393;SDS011;8306;51.128;4.476;2023-12-28T11:51:33;11.57;;;2.93;;
16393;SDS011;8306;51.128;4.476;2023-12-28T11:53:59;11.00;;;3.37;;
16393;SDS011;8306;51.128;4.476;2023-12-28T11:56:26;11.47;;;2.77;;
16393;SDS011;8306;51.128;4.476;2023-12-28T11:58:52;14.43;;;3.27;;
16393;SDS011;8306;51.128;4.476;2023-12-28T12:01:19;6.90;;;2.80;;
16393;SDS011;8306;51.128;4.476;2023-12-28T12:03:45;7.87;;;2.87;;
16393;SDS011;8306;51.128;4.476;2023-12-28T12:06:11;12.43;;;3.53;;
16393;SDS011;8306;51.128;4.476;2023-12-28T12:08:38;12.83;;;3.03;;
16393;SDS011;8306;51.128;4.476;2023-12-28T12:11:05;9.23;;;2.80;;
16393;SDS011;8306;51.128;4.476;2023-12-28T12:13:31;13.53;;;3.50;;
16393;SDS011;8306;51.128;4.476;2023-12-28T12:15:57;7.97;;;2.83;;
16393;SDS011;8306;51.128;4.476;2023-12-28T12:18:24;7.87;;;2.57;;
16393;SDS011;8306;51.128;4.476;2023-12-28T12:20:50;8.03;;;3.00;;
16393;SDS011;8306;51.128;4.476;2023-12-28T12:23:17;10.77;;;3.10;;
16393;SDS011;8306;51.128;4.476;2023-12-28T12:25:43;14.07;;;3.60;;
16393;SDS011;8306;51.128;4.476;2023-12-28T12:28:10;10.47;;;2.70;;
16393;SDS011;8306;51.128;4.476;2023-12-28T12:30:36;8.83;;;2.70;;
16393;SDS011;8306;51.128;4.476;2023-12-28T12:33:03;13.63;;;3.67;;
16393;SDS011;8306;51.128;4.476;2023-12-28T12:35:29;10.83;;;3.73;;
16393;SDS011;8306;51.128;4.476;2023-12-28T12:37:56;9.53;;;3.13;;
16393;SDS011;8306;51.128;4.476;2023-12-28T12:40:22;12.23;;;3.30;;
16393;SDS011;8306;51.128;4.476;2023-12-28T12:42:52;10.03;;;3.17;;
16393;SDS011;8306;51.128;4.476;2023-12-28T12:45:18;12.17;;;3.53;;
16393;SDS011;8306;51.128;4.476;2023-12-28T12:47:45;12.37;;;3.27;;
16393;SDS011;8306;51.128;4.476;2023-12-28T12:50:11;11.50;;;3.00;;
16393;SDS011;8306;51.128;4.476;2023-12-28T12:52:38;11.87;;;2.87;;
16393;SDS011;8306;51.128;4.476;2023-12-28T12:55:04;8.23;;;2.43;;
16393;SDS011;8306;51.128;4.476;2023-12-28T12:57:30;7.73;;;2.73;;
16393;SDS011;8306;51.128;4.476;2023-12-28T12:59:57;11.20;;;3.40;;
16393;SDS011;8306;51.128;4.476;2023-12-28T13:02:24;9.40;;;2.57;;
16393;SDS011;8306;51.128;4.476;2023-12-28T13:04:53;11.73;;;2.93;;
16393;SDS011;8306;51.128;4.476;2023-12-28T13:07:19;10.50;;;3.00;;
16393;SDS011;8306;51.128;4.476;2023-12-28T13:09:45;6.63;;;2.87;;
16393;SDS011;8306;51.128;4.476;2023-12-28T13:12:12;13.73;;;3.03;;
16393;SDS011;8306;51.128;4.476;2023-12-28T13:14:38;9.23;;;2.77;;
16393;SDS011;8306;51.128;4.476;2023-12-28T13:17:05;10.50;;;2.93;;
16393;SDS011;8306;51.128;4.476;2023-12-28T13:19:31;9.83;;;2.80;;
16393;SDS011;8306;51.128;4.476;2023-12-28T13:21:58;9.97;;;3.00;;
16393;SDS011;8306;51.128;4.476;2023-12-28T13:24:24;11.03;;;3.10;;
16393;SDS011;8306;51.128;4.476;2023-12-28T13:26:51;8.83;;;2.87;;
16393;SDS011;8306;51.128;4.476;2023-12-28T13:29:17;9.60;;;2.80;;
16393;SDS011;8306;51.128;4.476;2023-12-28T13:31:44;9.10;;;2.60;;
16393;SDS011;8306;51.128;4.476;2023-12-28T13:34:10;12.47;;;2.60;;
16393;SDS011;8306;51.128;4.476;2023-12-28T13:36:37;9.53;;;2.93;;
16393;SDS011;8306;51.128;4.476;2023-12-28T13:39:03;9.50;;;2.80;;
16393;SDS011;8306;51.128;4.476;2023-12-28T13:41:30;9.87;;;2.77;;
16393;SDS011;8306;51.128;4.476;2023-12-28T13:43:56;9.03;;;2.80;;
16393;SDS011;8306;51.128;4.476;2023-12-28T13:46:23;11.13;;;3.00;;
16393;SDS011;8306;51.128;4.476;2023-12-28T13:48:49;13.80;;;2.70;;
16393;SDS011;8306;51.128;4.476;2023-12-28T13:51:16;10.00;;;2.37;;
16393;SDS011;8306;51.128;4.476;2023-12-28T13:53:42;11.70;;;3.40;;
16393;SDS011;8306;51.128;4.476;2023-12-28T13:56:09;7.47;;;2.60;;
16393;SDS011;8306;51.128;4.476;2023-12-28T13:58:35;8.43;;;2.23;;
16393;SDS011;8306;51.128;4.476;2023-12-28T14:01:02;8.87;;;2.10;;
16393;SDS011;8306;51.128;4.476;2023-12-28T14:03:31;9.23;;;2.70;;
16393;SDS011;8306;51.128;4.476;2023-12-28T14:05:57;11.87;;;2.70;;
16393;SDS011;8306;51.128;4.476;2023-12-28T14:08:24;9.47;;;2.73;;
16393;SDS011;8306;51.128;4.476;2023-12-28T14:10:50;10.10;;;3.03;;
16393;SDS011;8306;51.128;4.476;2023-12-28T14:13:17;8.60;;;2.93;;
16393;SDS011;8306;51.128;4.476;2023-12-28T14:15:43;10.20;;;3.47;;
16393;SDS011;8306;51.128;4.476;2023-12-28T14:18:10;9.70;;;3.50;;
16393;SDS011;8306;51.128;4.476;2023-12-28T14:20:36;9.23;;;3.63;;
16393;SDS011;8306;51.128;4.476;2023-12-28T14:23:03;7.73;;;2.77;;
16393;SDS011;8306;51.128;4.476;2023-12-28T14:25:29;11.67;;;3.33;;
16393;SDS011;8306;51.128;4.476;2023-12-28T14:27:56;8.43;;;2.67;;
16393;SDS011;8306;51.128;4.476;2023-12-28T14:30:22;8.50;;;2.30;;
16393;SDS011;8306;51.128;4.476;2023-12-28T14:32:52;8.47;;;3.07;;
16393;SDS011;8306;51.128;4.476;2023-12-28T14:35:18;10.53;;;2.70;;
16393;SDS011;8306;51.128;4.476;2023-12-28T14:37:45;13.30;;;3.17;;
16393;SDS011;8306;51.128;4.476;2023-12-28T14:40:11;9.20;;;2.07;;
16393;SDS011;8306;51.128;4.476;2023-12-28T14:42:38;15.17;;;3.23;;
16393;SDS011;8306;51.128;4.476;2023-12-28T14:45:04;8.67;;;2.60;;
16393;SDS011;8306;51.128;4.476;2023-12-28T14:47:31;10.63;;;2.53;;
16393;SDS011;8306;51.128;4.476;2023-12-28T14:49:57;7.53;;;2.67;;
16393;SDS011;8306;51.128;4.476;2023-12-28T14:52:24;9.50;;;2.37;;
16393;SDS011;8306;51.128;4.476;2023-12-28T14:54:50;10.13;;;2.97;;